Time;durP1;ratioP1;P1;durP2;ratioP2;P2;SDS_P1;SDS_P2;PMS_P1;PMS_P2;Temp;Humidity;BMP_temperature;BMP_pressure;BME280_temperature;BME280_humidity;BME280_pressure;Samples;Min_cycle;Max_cycle;Signal;HPM_P1;HPM_P2
2023/03/31 00:02:12;;;;;;;14.65;3.17;;;;;;;12.10;91.62;99298.69;5000014;28;20119;-86
2023/03/31 00:04:44;;;;;;;8.23;2.50;;;;;;;12.09;91.77;99302.38;5006732;28;20049;-86
2023/03/31 00:07:13;;;;;;;14.70;2.65;;;;;;;12.06;91.88;99287.56;4981428;28;20144;-86
2023/03/31 00:09:44;;;;;;;8.23;2.72;;;;;;;12.03;91.76;99279.84;4999251;28;20144;-86
2023/03/31 00:12:16;;;;;;;11.35;2.50;;;;;;;12.05;91.70;99280.53;4960425;28;20042;-86
2023/03/31 00:14:43;;;;;;;5.32;3.00;;;;;;;11.99;91.98;99265.22;4979748;28;20112;-86
2023/03/31 00:17:10;;;;;;;11.25;2.22;;;;;;;12.05;91.62;99274.41;4985998;28;20069;-86
2023/03/31 00:19:38;;;;;;;12.35;2.35;;;;;;;12.00;91.63;99266.06;5000877;28;20497;-86
2023/03/31 00:22:07;;;;;;;11.63;2.40;;;;;;;12.01;91.99;99265.91;4998019;28;20505;-86
2023/03/31 00:24:34;;;;;;;6.47;2.10;;;;;;;11.95;91.88;99263.88;4999539;28;20135;-86
2023/03/31 00:27:02;;;;;;;10.02;2.30;;;;;;;11.97;91.60;99266.38;4997244;28;20052;-86
2023/03/31 00:29:30;;;;;;;17.30;2.40;;;;;;;11.98;91.32;99257.38;4989144;28;20510;-86
2023/03/31 00:31:58;;;;;;;12.95;2.80;;;;;;;11.93;91.30;99247.22;5008983;28;20517;-86
2023/03/31 00:34:26;;;;;;;8.18;2.80;;;;;;;11.92;91.21;99258.88;4999419;28;20057;-87
2023/03/31 00:36:55;;;;;;;9.52;2.70;;;;;;;11.95;91.29;99255.88;4995185;28;20037;-86
2023/03/31 00:39:30;;;;;;;10.27;2.53;;;;;;;11.92;91.62;99227.75;4986177;28;20104;-86
2023/03/31 00:41:57;;;;;;;14.43;2.83;;;;;;;11.94;91.40;99217.81;4997707;28;20069;-86
2023/03/31 00:44:24;;;;;;;11.68;2.38;;;;;;;11.92;91.31;99213.63;4981570;28;20046;-86
2023/03/31 00:47:12;;;;;;;8.95;2.40;;;;;;;11.88;91.53;99210.47;4968046;28;20045;-86
2023/03/31 00:49:48;;;;;;;6.80;2.25;;;;;;;11.84;91.80;99209.06;4972776;28;20120;-86
2023/03/31 00:52:20;;;;;;;10.25;2.55;;;;;;;11.86;91.69;99204.47;5002462;28;20487;-86
2023/03/31 00:54:50;;;;;;;12.70;2.72;;;;;;;11.86;91.57;99195.63;5003645;28;20363;-87
2023/03/31 00:57:17;;;;;;;14.90;2.90;;;;;;;11.88;91.43;99188.34;4976526;28;20067;-86
2023/03/31 00:59:58;;;;;;;11.70;2.58;;;;;;;11.75;91.79;99180.75;4982721;28;20046;-86
2023/03/31 01:02:25;;;;;;;15.63;2.72;;;;;;;11.81;91.85;99176.66;4990987;28;20468;-86
2023/03/31 01:04:56;;;;;;;12.00;2.63;;;;;;;11.80;91.89;99180.28;5002749;28;20085;-86
2023/03/31 01:07:29;;;;;;;13.23;2.47;;;;;;;11.82;91.47;99173.00;5000916;28;20184;-86
2023/03/31 01:10:02;;;;;;;12.27;2.90;;;;;;;11.89;90.91;99196.16;4997879;28;20040;-86
2023/03/31 01:12:30;;;;;;;9.93;2.95;;;;;;;11.90;91.13;99191.66;5008167;28;20126;-86
2023/03/31 01:14:57;;;;;;;11.13;2.20;;;;;;;11.84;91.35;99187.81;4995934;28;20410;-87
2023/03/31 01:17:27;;;;;;;13.40;3.92;;;;;;;11.83;91.42;99179.97;4971975;28;20054;-86
2023/03/31 01:20:17;;;;;;;9.15;3.30;;;;;;;11.73;92.30;99180.13;5004035;28;20053;-86
2023/03/31 01:23:39;;;;;;;7.93;2.72;;;;;;;11.65;92.87;99169.41;5002852;28;20050;-86
2023/03/31 01:26:12;;;;;;;10.38;2.53;;;;;;;11.68;92.72;99166.47;4926250;28;20055;-87
2023/03/31 01:29:00;;;;;;;9.43;2.38;;;;;;;11.59;93.18;99160.25;4998021;28;20049;-86
2023/03/31 01:32:04;;;;;;;6.97;2.53;;;;;;;11.64;92.72;99157.13;5001638;28;20045;-86
2023/03/31 01:35:00;;;;;;;8.73;2.90;;;;;;;11.64;92.80;99144.66;4984406;28;20046;-86
2023/03/31 01:37:56;;;;;;;12.55;2.72;;;;;;;11.67;92.54;99148.81;4978022;28;20409;-87
2023/03/31 01:40:41;;;;;;;19.88;2.47;;;;;;;11.67;92.52;99146.16;4996533;28;20145;-86
2023/03/31 01:43:41;;;;;;;12.80;2.85;;;;;;;11.61;92.89;99144.97;5011124;28;20540;-86
2023/03/31 01:46:18;;;;;;;8.73;2.78;;;;;;;11.74;92.19;99155.16;5010480;28;20058;-86
2023/03/31 01:48:55;;;;;;;7.55;2.30;;;;;;;11.66;92.46;99155.13;4995246;28;20060;-86
2023/03/31 01:51:35;;;;;;;11.15;3.25;;;;;;;11.64;92.68;99149.97;5024765;28;20127;-86
2023/03/31 01:54:21;;;;;;;11.60;3.05;;;;;;;11.74;92.29;99142.69;4996939;28;20047;-86
2023/03/31 01:56:57;;;;;;;14.60;2.47;;;;;;;11.66;92.18;99141.84;4979920;28;20046;-86
2023/03/31 01:59:30;;;;;;;8.52;2.55;;;;;;;11.73;92.03;99132.25;5009212;28;20789;-86
2023/03/31 02:02:19;;;;;;;15.40;3.53;;;;;;;11.64;92.06;99115.41;4961895;28;20053;-86
2023/03/31 02:04:57;;;;;;;10.07;2.50;;;;;;;11.74;91.81;99105.47;4989958;28;20128;-86
2023/03/31 02:07:36;;;;;;;15.88;3.10;;;;;;;11.69;92.18;99086.50;4981720;28;20046;-86
2023/03/31 02:10:06;;;;;;;11.82;3.10;;;;;;;11.73;91.77;99082.53;5005599;28;20065;-86
2023/03/31 02:12:35;;;;;;;11.30;2.80;;;;;;;11.71;92.17;99081.03;4966282;28;20526;-86
2023/03/31 02:15:06;;;;;;;12.68;2.95;;;;;;;11.74;92.05;99084.19;5007783;28;20049;-86
2023/03/31 02:17:33;;;;;;;8.73;2.40;;;;;;;11.76;91.83;99084.03;4976522;28;20376;-86
2023/03/31 02:20:07;;;;;;;12.00;2.85;;;;;;;11.70;92.17;99085.53;5008524;28;20084;-86
2023/03/31 02:22:38;;;;;;;13.30;2.53;;;;;;;11.69;92.24;99077.69;4991744;28;20518;-86
2023/03/31 02:25:07;;;;;;;9.00;2.70;;;;;;;11.73;92.00;99079.03;4999317;28;20167;-86
2023/03/31 02:27:39;;;;;;;7.95;2.42;;;;;;;11.73;92.05;99074.56;5000291;28;20045;-86
2023/03/31 02:30:06;;;;;;;13.52;2.28;;;;;;;11.77;91.90;99074.22;4988109;28;20054;-86
2023/03/31 02:32:41;;;;;;;8.23;2.20;;;;;;;11.71;92.19;99068.56;4979297;28;20060;-86
2023/03/31 02:35:11;;;;;;;8.45;2.13;;;;;;;11.74;91.71;99062.91;4980634;28;20300;-86
2023/03/31 02:37:39;;;;;;;14.30;2.65;;;;;;;11.79;91.45;99064.25;4984709;28;20052;-86
2023/03/31 02:40:10;;;;;;;7.97;2.47;;;;;;;11.75;91.75;99063.72;4997702;28;20475;-86
2023/03/31 02:42:38;;;;;;;11.30;2.13;;;;;;;11.79;91.63;99053.63;4993195;28;20045;-86
2023/03/31 02:45:26;;;;;;;8.85;2.10;;;;;;;11.81;91.45;99059.63;4978793;28;20112;-86
2023/03/31 02:47:54;;;;;;;15.68;2.38;;;;;;;11.78;91.64;99049.28;5004738;28;20052;-86
2023/03/31 02:50:23;;;;;;;8.20;2.40;;;;;;;11.81;90.99;99049.81;4980174;28;20519;-86
2023/03/31 02:53:02;;;;;;;17.15;4.45;;;;;;;11.84;89.78;99036.16;4992519;28;20050;-86
2023/03/31 02:56:00;;;;;;;11.20;2.58;;;;;;;11.89;88.36;99035.72;4963066;28;20149;-86
2023/03/31 02:58:40;;;;;;;12.77;1.90;;;;;;;11.95;87.87;99027.06;5020681;28;20278;-86
2023/03/31 03:01:37;;;;;;;13.25;2.58;;;;;;;11.94;87.61;99017.44;4996896;28;20054;-86
2023/03/31 03:04:16;;;;;;;7.22;2.00;;;;;;;12.00;87.41;99011.44;5013083;28;20343;-86
2023/03/31 03:06:52;;;;;;;5.50;1.50;;;;;;;12.08;87.27;98997.31;5005614;28;20153;-86
2023/03/31 03:09:44;;;;;;;8.50;1.50;;;;;;;11.94;88.45;98983.69;4990063;28;20053;-86
2023/03/31 03:12:24;;;;;;;8.38;1.73;;;;;;;11.93;89.41;98970.53;5006097;28;20053;-85
2023/03/31 03:14:56;;;;;;;7.90;2.03;;;;;;;11.93;89.52;98951.91;5022253;28;20048;-86
2023/03/31 03:17:31;;;;;;;20.13;4.30;;;;;;;11.86;89.85;98946.44;4991757;28;20072;-86
2023/03/31 03:19:59;;;;;;;8.95;2.78;;;;;;;11.91;89.50;98929.97;5012137;28;20057;-86
2023/03/31 03:22:29;;;;;;;11.00;2.05;;;;;;;11.89;89.63;98922.16;5001960;28;20565;-86
2023/03/31 03:24:56;;;;;;;7.97;2.78;;;;;;;11.92;89.45;98923.66;4992308;28;20535;-86
2023/03/31 03:27:23;;;;;;;14.10;4.05;;;;;;;11.92;89.33;98921.00;4975397;28;20178;-86
2023/03/31 03:29:49;;;;;;;10.80;3.70;;;;;;;11.92;89.06;98913.84;4963793;28;20053;-86
2023/03/31 03:32:16;;;;;;;18.58;5.50;;;;;;;11.87;89.50;98905.53;5006931;28;20046;-86
2023/03/31 03:34:43;;;;;;;16.77;6.60;;;;;;;11.88;89.34;98904.53;4991361;28;20038;-86
2023/03/31 03:37:10;;;;;;;9.43;3.47;;;;;;;11.91;89.07;98901.53;5006525;28;20404;-86
2023/03/31 03:39:37;;;;;;;11.90;3.17;;;;;;;11.90;89.02;98901.69;4997256;28;20042;-86
2023/03/31 03:42:05;;;;;;;12.75;2.88;;;;;;;11.88;88.84;98901.88;4975821;28;20054;-86
2023/03/31 03:44:31;;;;;;;17.35;5.00;;;;;;;11.89;88.80;98894.72;4990649;28;20060;-86
2023/03/31 03:46:58;;;;;;;8.18;2.75;;;;;;;11.87;88.78;98891.41;4995739;28;20042;-86
2023/03/31 03:49:25;;;;;;;7.55;2.47;;;;;;;11.88;88.69;98879.75;4966769;28;20050;-86
2023/03/31 03:51:52;;;;;;;7.22;2.10;;;;;;;11.88;88.45;98871.75;5009242;28;20502;-86
2023/03/31 03:54:18;;;;;;;9.73;3.60;;;;;;;11.90;88.17;98859.13;5011665;28;20049;-86
2023/03/31 03:56:45;;;;;;;11.68;3.78;;;;;;;11.85;88.67;98856.13;4989989;28;20049;-86
2023/03/31 03:59:12;;;;;;;14.70;3.85;;;;;;;11.87;88.79;98864.78;5006330;28;20053;-86
2023/03/31 04:01:39;;;;;;;12.40;2.72;;;;;;;11.83;88.66;98844.81;4979319;28;20143;-86
2023/03/31 04:04:06;;;;;;;10.45;3.45;;;;;;;11.82;88.47;98838.66;5002536;28;20396;-86
2023/03/31 04:06:33;;;;;;;6.00;1.95;;;;;;;11.82;88.35;98832.50;4962983;28;20066;-86
2023/03/31 04:09:00;;;;;;;10.88;2.38;;;;;;;11.80;88.46;98823.88;4990624;28;20050;-86
2023/03/31 04:11:27;;;;;;;10.68;2.65;;;;;;;11.81;88.39;98817.56;4995854;28;20049;-86
2023/03/31 04:13:54;;;;;;;12.52;2.53;;;;;;;11.82;88.65;98814.72;4979633;28;20037;-86
2023/03/31 04:16:22;;;;;;;9.32;2.08;;;;;;;11.82;88.72;98803.25;4990156;28;20046;-86
2023/03/31 04:18:48;;;;;;;7.60;2.15;;;;;;;11.82;88.59;98801.44;5018806;28;20046;-86
2023/03/31 04:21:21;;;;;;;10.30;2.70;;;;;;;11.78;88.53;98804.59;5014569;28;20471;-86
2023/03/31 04:23:57;;;;;;;3.90;2.03;;;;;;;11.80;88.00;98805.25;4972227;28;20153;-86
2023/03/31 04:26:30;;;;;;;8.23;3.05;;;;;;;11.79;87.73;98817.72;5000063;28;22656;-85
2023/03/31 04:28:59;;;;;;;11.55;2.40;;;;;;;11.85;87.22;98810.91;4988040;28;20597;-87
2023/03/31 04:31:29;;;;;;;10.48;2.90;;;;;;;11.88;86.59;98810.59;5005161;28;20693;-86
2023/03/31 04:34:01;;;;;;;14.90;2.67;;;;;;;11.86;87.06;98817.91;4987191;28;20049;-86
2023/03/31 04:36:30;;;;;;;11.48;2.97;;;;;;;11.83;86.81;98795.13;5009254;28;20050;-86
2023/03/31 04:38:57;;;;;;;10.43;2.85;;;;;;;11.81;87.00;98783.00;4969435;28;20056;-86
2023/03/31 04:41:24;;;;;;;13.27;3.17;;;;;;;11.83;87.20;98773.84;4994608;28;20271;-86
2023/03/31 04:43:51;;;;;;;12.48;4.20;;;;;;;11.82;87.26;98771.34;4985036;28;20053;-86
2023/03/31 04:46:17;;;;;;;6.93;2.72;;;;;;;11.84;87.06;98774.66;5001671;28;20054;-85
2023/03/31 04:48:44;;;;;;;9.98;3.00;;;;;;;11.81;87.50;98761.72;4994482;28;20042;-86
2023/03/31 04:51:14;;;;;;;17.80;3.50;;;;;;;11.79;87.39;98769.03;4988020;28;20049;-86
2023/03/31 04:53:40;;;;;;;12.52;3.00;;;;;;;11.73;87.96;98760.72;4992257;28;20562;-86
2023/03/31 04:56:07;;;;;;;9.90;3.75;;;;;;;11.76;87.94;98767.53;5002930;28;20050;-86
2023/03/31 04:58:34;;;;;;;11.60;3.00;;;;;;;11.79;87.35;98758.38;5015141;28;20396;-86
2023/03/31 05:01:01;;;;;;;11.52;3.33;;;;;;;11.78;87.22;98762.03;5009181;28;20034;-86
2023/03/31 05:03:28;;;;;;;10.90;2.85;;;;;;;11.75;87.66;98760.53;4990703;28;20054;-86
2023/03/31 05:05:55;;;;;;;8.40;2.35;;;;;;;11.78;87.20;98762.03;4995268;28;20034;-86
2023/03/31 05:08:22;;;;;;;8.05;2.60;;;;;;;11.73;87.47;98755.41;5016910;28;20084;-86
2023/03/31 05:10:49;;;;;;;14.57;3.60;;;;;;;11.77;86.92;98755.88;4990459;28;20411;-86
2023/03/31 05:13:15;;;;;;;12.00;5.43;;;;;;;11.81;86.80;98753.72;4993743;28;20050;-86
2023/03/31 05:15:44;;;;;;;8.98;3.28;;;;;;;11.80;86.38;98752.88;4992183;28;20097;-86
2023/03/31 05:18:10;;;;;;;14.75;3.28;;;;;;;11.77;86.28;98750.56;5008093;28;20054;-86
2023/03/31 05:20:37;;;;;;;8.23;3.00;;;;;;;11.74;86.46;98756.22;4980590;28;20077;-86
2023/03/31 05:23:05;;;;;;;13.93;3.45;;;;;;;11.80;85.98;98755.53;5023777;28;20588;-86
2023/03/31 05:25:32;;;;;;;9.85;4.05;;;;;;;11.73;86.32;98749.28;5010788;28;20053;-86
2023/03/31 05:28:00;;;;;;;12.73;4.63;;;;;;;11.75;86.73;98755.22;5014515;28;20052;-86
2023/03/31 05:30:27;;;;;;;11.05;3.55;;;;;;;11.72;87.10;98753.72;4965186;28;20042;-86
2023/03/31 05:32:54;;;;;;;12.60;3.30;;;;;;;11.75;87.53;98765.84;4994517;28;20554;-86
2023/03/31 05:35:22;;;;;;;11.75;4.20;;;;;;;11.74;87.38;98748.25;4995762;28;20513;-86
2023/03/31 05:37:48;;;;;;;26.98;9.00;;;;;;;11.74;87.43;98767.69;4972872;28;20169;-86
2023/03/31 05:40:15;;;;;;;17.38;6.22;;;;;;;11.70;87.97;98766.38;5024372;28;20046;-86
2023/03/31 05:42:42;;;;;;;12.02;4.60;;;;;;;11.66;87.99;98772.22;4989783;28;20112;-86
2023/03/31 05:45:09;;;;;;;14.18;4.45;;;;;;;11.60;88.55;98752.44;5006472;28;20046;-85
2023/03/31 05:47:36;;;;;;;17.20;3.75;;;;;;;11.63;88.74;98757.44;4988678;28;20046;-86
2023/03/31 05:50:06;;;;;;;13.50;4.32;;;;;;;11.54;89.36;98746.97;5001851;28;20046;-86
2023/03/31 05:52:34;;;;;;;20.38;4.28;;;;;;;11.56;89.44;98748.47;4988524;28;20406;-85
2023/03/31 05:55:01;;;;;;;10.73;3.92;;;;;;;11.58;89.46;98742.97;5021347;28;20046;-85
2023/03/31 05:57:28;;;;;;;17.35;4.50;;;;;;;11.63;89.08;98751.28;4993266;28;20041;-86
2023/03/31 05:59:55;;;;;;;11.88;3.88;;;;;;;11.64;89.20;98736.97;4999162;28;20046;-85
2023/03/31 06:02:21;;;;;;;11.27;3.83;;;;;;;11.64;89.34;98729.81;4969779;28;20054;-86
2023/03/31 06:04:49;;;;;;;13.10;4.78;;;;;;;11.63;89.71;98719.38;4992734;28;20089;-86
2023/03/31 06:07:16;;;;;;;27.35;6.30;;;;;;;11.61;89.76;98711.56;4993406;28;20093;-86
2023/03/31 06:09:44;;;;;;;19.30;4.40;;;;;;;11.58;90.44;98693.28;4980944;28;20129;-86
2023/03/31 06:12:11;;;;;;;13.98;4.40;;;;;;;11.63;90.09;98682.97;5016218;28;20060;-86
2023/03/31 06:14:37;;;;;;;12.80;4.85;;;;;;;11.59;90.52;98681.63;5005584;28;20049;-86
2023/03/31 06:17:04;;;;;;;16.50;4.72;;;;;;;11.64;90.28;98679.31;4996644;28;20060;-86
2023/03/31 06:19:31;;;;;;;17.55;4.40;;;;;;;11.58;90.71;98664.03;4985790;28;20049;-86
2023/03/31 06:21:58;;;;;;;14.13;4.70;;;;;;;11.57;90.95;98666.88;4978005;28;20049;-86
2023/03/31 06:24:24;;;;;;;10.82;4.32;;;;;;;11.57;91.01;98664.19;4989139;28;20521;-86
2023/03/31 06:26:51;;;;;;;14.05;4.28;;;;;;;11.50;91.66;98659.59;4961769;28;20414;-86
2023/03/31 06:29:19;;;;;;;19.70;5.35;;;;;;;11.49;91.75;98668.53;4993086;28;20116;-85
2023/03/31 06:31:46;;;;;;;14.20;4.80;;;;;;;11.50;91.90;98670.22;4996699;28;20792;-86
2023/03/31 06:34:13;;;;;;;21.33;5.78;;;;;;;11.56;91.51;98657.25;4972555;28;20044;-86
2023/03/31 06:36:40;;;;;;;14.80;5.10;;;;;;;11.60;91.09;98648.75;4990082;28;20060;-86
2023/03/31 06:39:07;;;;;;;11.93;4.47;;;;;;;11.60;91.25;98634.59;5019506;28;20144;-85
2023/03/31 06:41:34;;;;;;;20.38;4.90;;;;;;;11.58;91.83;98626.00;4977901;28;20072;-86
2023/03/31 06:44:01;;;;;;;17.02;6.22;;;;;;;11.53;92.16;98626.50;5009994;28;20075;-86
2023/03/31 06:46:27;;;;;;;15.30;6.80;;;;;;;11.54;92.18;98620.19;5009296;28;20104;-85
2023/03/31 06:48:54;;;;;;;18.58;5.53;;;;;;;11.54;92.29;98625.50;5016365;28;20065;-86
2023/03/31 06:51:22;;;;;;;12.50;5.53;;;;;;;11.50;92.59;98611.72;5019739;28;20050;-86
2023/03/31 06:53:49;;;;;;;12.55;4.85;;;;;;;11.54;92.91;98611.38;4981298;28;20473;-86
2023/03/31 06:56:15;;;;;;;15.23;5.00;;;;;;;11.51;93.37;98594.75;5016665;28;20046;-86
2023/03/31 06:58:42;;;;;;;14.27;6.50;;;;;;;11.54;93.13;98595.44;4988350;28;20066;-86
2023/03/31 07:01:10;;;;;;;12.20;5.57;;;;;;;11.55;92.64;98584.63;4977619;28;20049;-85
2023/03/31 07:03:37;;;;;;;18.75;8.00;;;;;;;11.57;92.22;98569.31;4992056;28;20543;-86
2023/03/31 07:06:04;;;;;;;21.23;7.43;;;;;;;11.64;91.43;98610.16;4989440;28;20050;-86
2023/03/31 07:08:31;;;;;;;20.83;5.90;;;;;;;11.66;91.16;98629.44;5012061;28;20050;-86
2023/03/31 07:10:59;;;;;;;18.20;6.15;;;;;;;11.65;91.53;98626.94;5000918;28;20487;-86
2023/03/31 07:13:27;;;;;;;12.38;6.00;;;;;;;11.68;91.34;98624.78;5000872;28;20054;-85
2023/03/31 07:15:55;;;;;;;20.20;6.25;;;;;;;11.63;92.01;98610.34;4997379;28;20125;-86
2023/03/31 07:18:24;;;;;;;23.15;6.93;;;;;;;11.66;92.09;98615.31;5018771;28;20041;-86
2023/03/31 07:20:52;;;;;;;21.92;8.18;;;;;;;11.66;91.90;98608.16;5002156;28;20481;-86
2023/03/31 07:23:18;;;;;;;22.83;7.13;;;;;;;11.68;91.66;98597.38;4981279;28;20366;-86
2023/03/31 07:25:46;;;;;;;24.15;7.90;;;;;;;11.66;92.15;98581.59;5022738;28;20061;-86
2023/03/31 07:28:15;;;;;;;17.27;8.30;;;;;;;11.63;92.71;98550.03;4988196;28;20142;-86
2023/03/31 07:30:42;;;;;;;22.13;7.30;;;;;;;11.68;92.16;98549.50;4983324;28;20113;-86
2023/03/31 07:33:09;;;;;;;19.17;8.07;;;;;;;11.70;93.11;98558.97;4988545;28;20034;-86
2023/03/31 07:35:38;;;;;;;13.98;6.10;;;;;;;11.79;92.78;98558.91;4992470;28;20440;-86
2023/03/31 07:38:07;;;;;;;18.95;7.40;;;;;;;11.79;93.05;98553.59;4984474;28;20127;-86
2023/03/31 07:40:33;;;;;;;19.98;7.35;;;;;;;11.84;92.87;98545.94;4956887;28;20451;-86
2023/03/31 07:43:00;;;;;;;19.17;6.78;;;;;;;11.85;93.08;98551.06;4974694;28;20038;-86
2023/03/31 07:45:27;;;;;;;25.17;8.77;;;;;;;11.85;93.21;98545.72;4990886;28;20049;-86
2023/03/31 07:47:54;;;;;;;18.42;7.35;;;;;;;11.85;93.38;98543.06;4990411;28;20041;-86
2023/03/31 07:50:21;;;;;;;22.33;7.60;;;;;;;11.88;93.06;98566.72;4990959;28;20046;-86
2023/03/31 07:52:51;;;;;;;27.70;7.70;;;;;;;11.87;93.21;98550.91;5003485;28;20581;-86
2023/03/31 07:55:18;;;;;;;18.77;7.63;;;;;;;11.89;93.17;98549.75;4978505;28;20439;-86
2023/03/31 07:57:46;;;;;;;20.63;7.60;;;;;;;11.91;93.20;98565.53;4991509;28;20053;-85
2023/03/31 08:00:14;;;;;;;21.65;7.90;;;;;;;11.90;93.91;98563.88;5009310;28;20054;-87
2023/03/31 08:02:41;;;;;;;18.98;7.22;;;;;;;11.91;93.91;98562.88;4991169;28;20475;-86
2023/03/31 08:05:10;;;;;;;17.35;8.07;;;;;;;11.93;94.34;98552.88;5007189;28;20660;-86
2023/03/31 08:07:40;;;;;;;21.42;8.30;;;;;;;11.95;93.68;98549.03;4991012;28;20050;-85
2023/03/31 08:10:11;;;;;;;19.67;7.22;;;;;;;12.03;93.25;98557.97;4999455;28;20483;-86
2023/03/31 08:12:37;;;;;;;20.23;7.78;;;;;;;12.09;92.92;98559.94;4997230;28;20053;-86
2023/03/31 08:15:05;;;;;;;20.73;6.63;;;;;;;12.14;92.68;98561.06;5027766;28;20045;-86
2023/03/31 08:17:31;;;;;;;13.30;5.57;;;;;;;12.21;92.13;98566.47;5017965;28;20054;-86
2023/03/31 08:19:58;;;;;;;15.85;5.97;;;;;;;12.25;91.52;98574.94;4998394;28;20046;-85
2023/03/31 08:22:31;;;;;;;13.13;5.13;;;;;;;12.23;91.21;98579.63;5011577;28;20046;-86
2023/03/31 08:24:58;;;;;;;16.13;5.25;;;;;;;12.22;91.21;98568.16;4990322;28;20049;-86
2023/03/31 08:27:25;;;;;;;13.82;4.38;;;;;;;12.19;90.58;98559.69;5004327;28;20080;-85
2023/03/31 08:29:51;;;;;;;14.85;4.03;;;;;;;12.19;90.93;98557.88;4996202;28;20056;-85
2023/03/31 08:32:22;;;;;;;10.15;5.25;;;;;;;12.28;90.83;98558.63;4990422;28;20411;-86
2023/03/31 08:34:48;;;;;;;9.82;4.55;;;;;;;12.37;90.97;98554.91;5016157;28;20121;-87
2023/03/31 08:37:15;;;;;;;17.00;4.53;;;;;;;12.43;91.01;98554.19;5007674;28;20521;-86
2023/03/31 08:39:42;;;;;;;14.02;4.35;;;;;;;12.47;91.30;98544.84;5002025;28;20041;-86
2023/03/31 08:42:19;;;;;;;19.30;4.43;;;;;;;12.46;90.64;98545.00;4996002;28;20678;-86
2023/03/31 08:44:56;;;;;;;14.95;4.78;;;;;;;12.45;90.46;98538.03;5018472;28;20054;-86
2023/03/31 08:47:25;;;;;;;19.88;4.28;;;;;;;12.54;90.21;98531.63;4993778;28;20202;-86
2023/03/31 08:49:59;;;;;;;10.52;3.92;;;;;;;12.57;90.30;98536.59;4988250;28;20533;-86
2023/03/31 08:52:34;;;;;;;23.33;5.90;;;;;;;12.58;90.21;98535.59;4988696;28;20058;-86
2023/03/31 08:55:05;;;;;;;10.98;3.80;;;;;;;12.69;89.36;98529.81;4988038;28;20046;-86
2023/03/31 08:58:24;;;;;;;14.05;4.18;;;;;;;12.62;89.19;98544.03;5013356;28;20049;-85
2023/03/31 09:01:12;;;;;;;14.38;4.03;;;;;;;12.57;89.46;98524.13;4962166;28;20053;-86
2023/03/31 09:03:42;;;;;;;17.55;5.28;;;;;;;12.73;89.00;98528.44;5003677;28;20133;-85
2023/03/31 09:06:35;;;;;;;19.42;4.60;;;;;;;12.72;87.83;98532.13;4991679;28;20047;-86
2023/03/31 09:09:02;;;;;;;15.35;4.03;;;;;;;12.84;88.12;98527.16;4991747;28;20491;-86
2023/03/31 09:11:39;;;;;;;21.75;4.07;;;;;;;12.81;88.21;98520.38;4984200;28;20284;-86
2023/03/31 09:14:05;;;;;;;11.60;3.05;;;;;;;12.90;87.76;98521.13;4997288;28;20077;-86
2023/03/31 09:16:55;;;;;;;13.88;3.90;;;;;;;12.88;87.30;98520.47;4997902;28;20581;-86
2023/03/31 09:19:34;;;;;;;11.57;3.45;;;;;;;12.74;85.30;98521.28;4994139;28;20042;-86
2023/03/31 09:22:10;;;;;;;12.25;3.83;;;;;;;12.77;85.40;98519.09;4976557;28;20049;-86
2023/03/31 09:24:55;;;;;;;6.22;2.67;;;;;;;12.82;85.28;98524.69;5000920;28;20045;-86
2023/03/31 09:27:23;;;;;;;12.48;3.70;;;;;;;12.86;85.29;98506.50;4981898;28;20076;-86
2023/03/31 09:30:19;;;;;;;10.07;2.55;;;;;;;12.71;82.13;98490.50;4990743;28;20038;-86
2023/03/31 09:33:11;;;;;;;10.20;2.78;;;;;;;12.83;83.16;98504.22;4970540;28;20049;-87
2023/03/31 09:35:40;;;;;;;10.52;2.17;;;;;;;12.91;83.43;98492.63;4926789;28;20365;-86
2023/03/31 09:38:20;;;;;;;15.48;3.58;;;;;;;12.91;82.10;98496.13;4941861;28;20603;-86
2023/03/31 09:44:22;;;;;;;10.60;2.50;;;;;;;12.91;79.84;98445.50;4988766;28;20045;-86
2023/03/31 09:46:53;;;;;;;15.88;3.17;;;;;;;12.94;77.81;98469.09;4956621;28;20071;-86
2023/03/31 09:49:25;;;;;;;16.15;3.42;;;;;;;13.09;78.89;98470.94;4962170;28;20108;-86
2023/03/31 09:52:19;;;;;;;19.77;4.28;;;;;;;13.13;78.50;98474.91;4967693;28;20298;-86
2023/03/31 09:54:53;;;;;;;11.10;2.40;;;;;;;13.18;78.97;98481.31;4968635;28;20045;-86
2023/03/31 09:57:32;;;;;;;14.10;3.17;;;;;;;13.22;79.35;98473.78;4976318;28;20046;-86
2023/03/31 10:00:12;;;;;;;16.40;3.10;;;;;;;13.18;75.04;98440.53;4970352;28;24521;-86
2023/03/31 10:02:48;;;;;;;11.63;2.70;;;;;;;13.33;76.46;98449.34;4984284;28;20061;-86
2023/03/31 10:05:28;;;;;;;9.15;3.17;;;;;;;13.44;76.51;98448.03;4987524;28;20042;-86
2023/03/31 10:08:11;;;;;;;19.52;3.35;;;;;;;13.43;73.16;98436.53;4972171;28;20052;-86
2023/03/31 10:10:43;;;;;;;11.07;2.38;;;;;;;13.49;73.86;98426.97;4977890;28;20049;-86
2023/03/31 10:13:23;;;;;;;96.90;9.10;;;;;;;13.59;74.66;98432.00;4959933;28;20042;-86
2023/03/31 10:16:13;;;;;;;38.00;6.65;;;;;;;13.47;72.63;98436.97;4961285;28;20072;-86
2023/03/31 10:18:44;;;;;;;22.33;2.35;;;;;;;13.43;69.29;98417.03;4954489;28;20533;-86
2023/03/31 10:21:34;;;;;;;17.90;2.60;;;;;;;13.31;66.66;98423.91;4923166;28;20056;-86
2023/03/31 10:24:19;;;;;;;15.68;2.63;;;;;;;13.39;70.11;98421.09;4963499;28;20057;-86
2023/03/31 10:27:28;;;;;;;;;;;;;;;;;;;;;
2023/03/31 10:30:32;;;;;;;14.73;2.35;;;;;;;13.44;71.15;98418.69;4975138;28;20057;-85
2023/03/31 10:32:59;;;;;;;13.95;2.22;;;;;;;13.34;69.56;98432.34;4966788;28;20506;-86
2023/03/31 10:35:41;;;;;;;23.55;2.55;;;;;;;13.36;71.96;98442.81;4991000;28;20050;-86
2023/03/31 10:38:15;;;;;;;23.25;3.38;;;;;;;13.27;72.81;98435.94;4974684;28;20054;-86
2023/03/31 10:40:52;;;;;;;27.33;4.38;;;;;;;13.20;74.52;98441.16;5008332;28;20042;-86
2023/03/31 10:43:26;;;;;;;19.88;2.90;;;;;;;13.19;75.26;98432.31;4964640;28;20525;-86
2023/03/31 10:45:59;;;;;;;19.25;3.00;;;;;;;13.17;73.53;98430.84;4917425;28;20470;-86
2023/03/31 10:48:38;;;;;;;12.95;2.97;;;;;;;13.15;74.48;98435.53;4944335;28;20731;-86
2023/03/31 10:51:22;;;;;;;14.95;2.95;;;;;;;13.12;76.54;98407.44;4939606;28;20111;-86
2023/03/31 10:54:05;;;;;;;18.50;2.35;;;;;;;13.22;77.10;98409.81;4975952;28;20491;-85
2023/03/31 10:56:40;;;;;;;17.35;2.88;;;;;;;13.28;77.56;98397.59;4987925;28;20041;-86
2023/03/31 10:59:36;;;;;;;23.77;2.80;;;;;;;13.33;77.09;98396.03;4983643;28;20052;-86
2023/03/31 11:02:48;;;;;;;14.82;2.95;;;;;;;13.29;76.81;98399.25;4990616;28;20071;-86
2023/03/31 11:05:32;;;;;;;17.42;2.92;;;;;;;13.28;76.13;98392.25;4996242;28;20049;-85
2023/03/31 11:08:21;;;;;;;15.45;2.38;;;;;;;13.30;75.89;98395.56;4983106;28;20081;-86
2023/03/31 11:11:06;;;;;;;18.02;3.90;;;;;;;13.25;76.42;98399.59;4995506;28;20045;-86
2023/03/31 11:14:01;;;;;;;21.80;3.47;;;;;;;13.13;74.18;98424.28;4967999;28;20052;-86
2023/03/31 11:16:55;;;;;;;15.20;2.75;;;;;;;13.10;74.61;98422.81;4976411;28;20479;-86
2023/03/31 11:20:24;;;;;;;14.23;3.10;;;;;;;13.00;76.29;98507.50;4954878;28;20143;-87
2023/03/31 11:23:01;;;;;;;13.93;3.65;;;;;;;12.88;77.06;98509.81;5010496;28;20089;-86
2023/03/31 11:25:39;;;;;;;9.93;2.03;;;;;;;12.85;77.03;98496.03;4995540;28;20083;-86
2023/03/31 11:28:20;;;;;;;8.85;1.33;;;;;;;12.67;76.10;98478.59;4976387;28;20081;-87
2023/03/31 11:30:56;;;;;;;13.57;2.88;;;;;;;12.57;78.97;98432.75;5019795;28;20057;-86
2023/03/31 11:33:23;;;;;;;7.85;1.00;;;;;;;12.56;78.87;98452.38;5019727;28;20458;-86
2023/03/31 11:36:03;;;;;;;2.85;0.77;;;;;;;12.49;75.89;98446.97;4983772;28;20422;-86
2023/03/31 11:38:54;;;;;;;4.25;0.85;;;;;;;12.45;77.74;98451.00;4995115;28;20045;-86
2023/03/31 11:41:52;;;;;;;3.78;1.10;;;;;;;12.57;76.33;98456.72;4961523;28;20534;-86
2023/03/31 11:44:21;;;;;;;2.17;0.70;;;;;;;12.73;77.48;98459.19;4976710;28;20555;-86
2023/03/31 11:47:00;;;;;;;2.55;1.17;;;;;;;12.66;78.07;98452.94;4977514;28;20060;-87
2023/03/31 11:52:34;;;;;;;1.75;1.15;;;;;;;12.98;77.65;98422.44;5001611;28;20037;-86
2023/03/31 11:55:08;;;;;;;9.43;1.30;;;;;;;13.12;78.26;98422.59;4984155;28;20052;-86
2023/03/31 11:57:35;;;;;;;6.03;1.00;;;;;;;13.18;78.72;98406.69;4967586;28;20048;-86
2023/03/31 12:00:24;;;;;;;8.07;1.65;;;;;;;13.22;78.61;98410.63;4974790;28;20507;-86
2023/03/31 12:02:55;;;;;;;5.65;1.95;;;;;;;13.32;77.82;98383.69;4972708;28;20049;-86
2023/03/31 12:05:42;;;;;;;16.48;1.95;;;;;;;13.29;76.06;98396.59;4991531;28;20056;-86